createdAt,value
2018-06-11T00:00:19.979Z,23.13
2018-06-11T00:02:47.097Z,21.20
2018-06-11T00:05:14.209Z,21.83
2018-06-11T00:07:41.594Z,21.90
2018-06-11T00:10:08.673Z,21.33
2018-06-11T00:12:35.789Z,25.63
2018-06-11T00:15:02.935Z,25.80
2018-06-11T00:17:30.045Z,22.03
2018-06-11T00:19:57.207Z,24.10
2018-06-11T00:22:24.326Z,24.30
2018-06-11T00:24:51.440Z,20.80
2018-06-11T00:27:18.561Z,20.87
2018-06-11T00:29:45.681Z,21.33
2018-06-11T00:32:12.789Z,30.93
2018-06-11T00:34:39.912Z,20.00
2018-06-11T00:37:07.021Z,22.53
2018-06-11T00:39:34.555Z,21.73
2018-06-11T00:42:01.669Z,20.10
2018-06-11T00:44:28.820Z,23.80
2018-06-11T00:46:55.904Z,20.70
2018-06-11T00:49:23.042Z,22.83
2018-06-11T00:51:50.253Z,23.10
2018-06-11T00:54:17.355Z,22.40
2018-06-11T00:56:44.459Z,22.93
2018-06-11T00:59:11.568Z,21.57
2018-06-11T01:01:38.679Z,21.00
2018-06-11T01:04:05.812Z,22.70
2018-06-11T01:06:32.989Z,21.47
2018-06-11T01:09:00.095Z,22.87
2018-06-11T01:11:27.212Z,25.73
2018-06-11T01:13:54.393Z,23.67
2018-06-11T01:16:21.521Z,25.83
2018-06-11T01:18:48.621Z,25.90
2018-06-11T01:21:15.772Z,28.07
2018-06-11T01:23:42.881Z,24.27
2018-06-11T01:26:10.000Z,25.60
2018-06-11T01:28:37.121Z,31.63
2018-06-11T01:31:04.238Z,30.03
2018-06-11T01:33:31.441Z,26.37
2018-06-11T01:35:58.598Z,27.27
2018-06-11T01:38:25.783Z,31.87
2018-06-11T01:40:52.893Z,28.50
2018-06-11T01:43:20.004Z,31.70
2018-06-11T01:45:47.101Z,28.97
2018-06-11T01:48:14.216Z,31.43
2018-06-11T01:50:41.340Z,33.10
2018-06-11T01:53:08.453Z,30.90
2018-06-11T01:55:35.557Z,33.47
2018-06-11T01:58:02.722Z,30.07
2018-06-11T02:00:29.848Z,31.57
2018-06-11T02:02:57.061Z,33.60
2018-06-11T02:05:24.197Z,29.00
2018-06-11T02:07:51.303Z,35.03
2018-06-11T02:10:19.401Z,32.77
2018-06-11T02:12:46.540Z,36.07
2018-06-11T02:15:13.701Z,36.60
2018-06-11T02:17:40.780Z,35.10
2018-06-11T02:20:07.885Z,33.73
2018-06-11T02:22:35.000Z,33.53
2018-06-11T02:25:02.146Z,36.43
2018-06-11T02:27:29.284Z,34.87
2018-06-11T02:29:56.377Z,30.17
2018-06-11T02:32:23.487Z,36.23
2018-06-11T02:34:50.601Z,36.23
2018-06-11T02:37:17.801Z,37.43
2018-06-11T02:39:44.913Z,34.23
2018-06-11T02:42:12.019Z,38.60
2018-06-11T02:44:39.115Z,31.70
2018-06-11T02:47:06.234Z,37.00
2018-06-11T02:49:33.376Z,31.47
2018-06-11T02:52:00.514Z,31.73
2018-06-11T02:54:27.720Z,33.03
2018-06-11T02:56:54.836Z,33.60
2018-06-11T02:59:21.938Z,30.83
2018-06-11T03:01:49.093Z,31.73
2018-06-11T03:04:16.208Z,35.57
2018-06-11T03:06:43.304Z,30.73
2018-06-11T03:09:10.415Z,30.67
2018-06-11T03:11:37.524Z,33.93
2018-06-11T03:14:04.649Z,29.20
2018-06-11T03:16:31.766Z,33.03
2018-06-11T03:18:58.868Z,36.63
2018-06-11T03:21:25.966Z,32.37
2018-06-11T03:23:53.078Z,32.30
2018-06-11T03:26:20.314Z,32.50
2018-06-11T03:28:47.416Z,30.23
2018-06-11T03:31:14.561Z,33.77
2018-06-11T03:33:41.977Z,33.43
2018-06-11T03:36:09.213Z,27.87
2018-06-11T03:38:36.334Z,33.63
2018-06-11T03:41:03.453Z,28.93
2018-06-11T03:43:30.553Z,29.77
2018-06-11T03:45:57.661Z,32.63
2018-06-11T03:48:24.769Z,34.63
2018-06-11T03:50:51.902Z,27.83
2018-06-11T03:53:19.009Z,38.77
2018-06-11T03:55:46.125Z,32.37
2018-06-11T03:58:13.253Z,38.03
2018-06-11T04:00:40.459Z,34.23
2018-06-11T04:03:07.706Z,32.87
2018-06-11T04:05:34.817Z,35.33
2018-06-11T04:08:01.937Z,30.97
2018-06-11T04:10:30.086Z,32.50
2018-06-11T04:12:57.202Z,35.63
2018-06-11T04:15:24.344Z,36.67
2018-06-11T04:17:51.451Z,30.97
2018-06-11T04:20:18.561Z,35.20
2018-06-11T04:22:45.692Z,29.90
2018-06-11T04:25:12.888Z,32.70
2018-06-11T04:27:39.967Z,32.20
2018-06-11T04:30:07.077Z,36.10
2018-06-11T04:32:34.188Z,35.63
2018-06-11T04:35:01.289Z,28.90
2018-06-11T04:37:28.409Z,32.10
2018-06-11T04:39:55.583Z,37.93
2018-06-11T04:42:22.709Z,31.00
2018-06-11T04:44:49.968Z,35.97
2018-06-11T04:47:17.157Z,36.10
2018-06-11T04:49:44.317Z,34.57
2018-06-11T04:52:11.513Z,36.07
2018-06-11T04:54:38.627Z,34.40
2018-06-11T04:57:05.772Z,34.33
2018-06-11T04:59:32.887Z,31.60
2018-06-11T05:02:00.031Z,33.57
2018-06-11T05:04:27.132Z,34.03
2018-06-11T05:06:54.252Z,36.00
2018-06-11T05:09:21.353Z,39.97
2018-06-11T05:11:48.477Z,34.97
2018-06-11T05:14:16.837Z,42.47
2018-06-11T05:16:44.133Z,40.83
2018-06-11T05:19:11.229Z,37.13
2018-06-11T05:21:38.352Z,34.53
2018-06-11T05:24:05.455Z,40.60
2018-06-11T05:26:32.589Z,41.00
2018-06-11T05:28:59.701Z,40.20
2018-06-11T05:31:26.837Z,35.10
2018-06-11T05:33:53.951Z,41.17
2018-06-11T05:36:21.210Z,41.90
2018-06-11T05:38:48.320Z,37.87
2018-06-11T05:41:15.441Z,37.67
2018-06-11T05:43:42.597Z,38.53
2018-06-11T05:46:12.650Z,37.70
2018-06-11T05:48:42.199Z,38.80
2018-06-11T05:51:09.443Z,37.23
2018-06-11T05:53:36.552Z,34.33
2018-06-11T05:56:03.719Z,35.57
2018-06-11T05:58:31.209Z,36.00
2018-06-11T06:00:58.350Z,35.73
2018-06-11T06:03:25.536Z,33.30
2018-06-11T06:05:52.823Z,31.20
2018-06-11T06:08:19.985Z,38.70
2018-06-11T06:10:47.152Z,38.00
2018-06-11T06:13:14.311Z,32.37
2018-06-11T06:15:41.388Z,36.07
2018-06-11T06:18:08.507Z,33.93
2018-06-11T06:20:35.605Z,38.77
2018-06-11T06:23:02.740Z,31.07
2018-06-11T06:25:29.852Z,30.50
2018-06-11T06:27:56.949Z,34.10
2018-06-11T06:30:24.121Z,33.97
2018-06-11T06:32:51.365Z,36.20
2018-06-11T06:35:18.497Z,39.37
2018-06-11T06:37:45.637Z,38.33
2018-06-11T06:40:12.737Z,35.10
2018-06-11T06:42:39.847Z,39.00
2018-06-11T06:45:06.966Z,38.80
2018-06-11T06:47:34.081Z,37.93
2018-06-11T06:50:01.189Z,35.30
2018-06-11T06:52:28.339Z,31.97
2018-06-11T06:54:55.507Z,34.97
2018-06-11T06:57:22.724Z,34.30
2018-06-11T06:59:49.838Z,34.43
2018-06-11T07:02:16.964Z,36.77
2018-06-11T07:04:44.071Z,32.93
2018-06-11T07:07:11.170Z,38.07
2018-06-11T07:09:38.327Z,37.87
2018-06-11T07:12:05.384Z,34.73
2018-06-11T07:14:32.573Z,33.47
2018-06-11T07:16:59.713Z,34.53
2018-06-11T07:19:26.911Z,30.07
2018-06-11T07:21:54.045Z,35.37
2018-06-11T07:24:21.173Z,32.37
2018-06-11T07:26:48.294Z,35.70
2018-06-11T07:29:15.404Z,28.80
2018-06-11T07:31:42.765Z,30.03
2018-06-11T07:34:09.886Z,29.50
2018-06-11T07:36:36.984Z,30.00
2018-06-11T07:39:05.606Z,27.70
2018-06-11T07:41:33.103Z,29.90
2018-06-11T07:44:00.225Z,29.40
2018-06-11T07:46:27.337Z,28.73
2018-06-11T07:48:54.473Z,25.43
2018-06-11T07:51:21.631Z,25.83
2018-06-11T07:53:48.717Z,28.40
2018-06-11T07:56:15.870Z,26.80
2018-06-11T07:58:42.977Z,27.20
2018-06-11T08:01:10.092Z,29.73
2018-06-11T08:03:37.289Z,26.10
2018-06-11T08:06:04.453Z,29.77
2018-06-11T08:08:31.608Z,29.07
2018-06-11T08:10:58.789Z,24.00
2018-06-11T08:13:25.902Z,22.17
2018-06-11T08:15:53.005Z,24.70
2018-06-11T08:18:20.158Z,21.97
2018-06-11T08:20:48.241Z,23.70
2018-06-11T08:23:15.334Z,25.50
2018-06-11T08:25:42.440Z,25.83
2018-06-11T08:28:09.602Z,25.27
2018-06-11T08:30:36.661Z,24.20
2018-06-11T08:33:03.789Z,25.13
2018-06-11T08:35:30.909Z,23.53
2018-06-11T08:37:58.045Z,30.10
2018-06-11T08:40:25.177Z,22.80
2018-06-11T08:42:52.352Z,24.47
2018-06-11T08:45:19.914Z,27.37
2018-06-11T08:47:47.037Z,26.23
2018-06-11T08:50:14.209Z,21.70
2018-06-11T08:52:41.317Z,23.53
2018-06-11T08:55:08.438Z,24.07
2018-06-11T08:57:35.804Z,24.70
2018-06-11T09:00:03.094Z,22.50
2018-06-11T09:02:30.212Z,22.90
2018-06-11T09:04:57.326Z,22.00
2018-06-11T09:07:24.428Z,24.73
2018-06-11T09:09:51.545Z,23.40
2018-06-11T09:12:18.645Z,21.47
2018-06-11T09:14:45.752Z,23.40
2018-06-11T09:17:12.962Z,24.03
2018-06-11T09:19:40.065Z,20.53
2018-06-11T09:22:07.281Z,24.37
2018-06-11T09:24:34.384Z,25.87
2018-06-11T09:27:01.502Z,20.50
2018-06-11T09:29:28.603Z,22.00
2018-06-11T09:31:55.713Z,23.67
2018-06-11T09:34:22.842Z,24.53
2018-06-11T09:36:50.341Z,22.57
2018-06-11T09:39:17.427Z,20.90
2018-06-11T09:41:44.538Z,24.10
2018-06-11T09:44:11.702Z,24.00
2018-06-11T09:46:38.792Z,20.00
2018-06-11T09:49:06.298Z,22.80
2018-06-11T09:51:33.427Z,18.03
2018-06-11T09:54:00.512Z,22.60
2018-06-11T09:56:27.638Z,21.60
2018-06-11T09:58:55.021Z,17.83
2018-06-11T10:01:22.140Z,18.03
2018-06-11T10:03:49.241Z,17.03
2018-06-11T10:06:16.353Z,24.30
2018-06-11T10:08:43.453Z,19.23
2018-06-11T10:11:10.729Z,20.50
2018-06-11T10:13:37.831Z,15.57
2018-06-11T10:16:04.990Z,22.03
2018-06-11T10:18:32.093Z,16.23
2018-06-11T10:20:59.193Z,18.20
2018-06-11T10:23:26.304Z,18.63
2018-06-11T10:25:53.414Z,15.20
2018-06-11T10:28:20.531Z,14.63
2018-06-11T10:30:47.636Z,16.87
2018-06-11T10:33:14.749Z,17.20
2018-06-11T10:35:41.941Z,16.83
2018-06-11T10:38:09.094Z,17.03
2018-06-11T10:40:36.197Z,13.40
2018-06-11T10:43:03.321Z,15.80
2018-06-11T10:45:30.429Z,16.73
2018-06-11T10:47:57.544Z,12.70
2018-06-11T10:50:24.641Z,13.43
2018-06-11T10:52:51.761Z,13.10
2018-06-11T10:55:18.912Z,15.23
2018-06-11T10:57:46.040Z,14.20
2018-06-11T11:00:13.179Z,11.80
2018-06-11T11:02:40.353Z,13.10
2018-06-11T11:05:07.457Z,11.47
2018-06-11T11:07:34.597Z,11.23
2018-06-11T11:10:01.717Z,10.23
2018-06-11T11:12:28.860Z,11.30
2018-06-11T11:14:56.096Z,11.90
2018-06-11T11:17:23.210Z,17.33
2018-06-11T11:19:50.322Z,11.73
2018-06-11T11:22:17.602Z,11.70
2018-06-11T11:24:44.879Z,10.47
2018-06-11T11:27:12.002Z,10.60
2018-06-11T11:29:39.140Z,10.33
2018-06-11T11:32:06.284Z,9.83
2018-06-11T11:34:33.400Z,14.40
2018-06-11T11:37:00.529Z,9.60
2018-06-11T11:39:27.645Z,11.57
2018-06-11T11:41:54.841Z,11.47
2018-06-11T11:44:21.946Z,14.77
2018-06-11T11:46:49.093Z,12.07
2018-06-11T11:49:16.201Z,10.17
2018-06-11T11:51:43.316Z,10.40
2018-06-11T11:54:10.425Z,10.27
2018-06-11T11:56:37.562Z,12.23
2018-06-11T11:59:04.680Z,8.87
2018-06-11T12:01:31.806Z,12.43
2018-06-11T12:03:58.898Z,11.60
2018-06-11T12:06:26.036Z,14.80
2018-06-11T12:08:53.173Z,11.83
2018-06-11T12:11:20.357Z,12.10
2018-06-11T12:13:47.586Z,14.73
2018-06-11T12:16:14.673Z,10.53
2018-06-11T12:18:41.782Z,10.07
2018-06-11T12:21:08.915Z,10.40
2018-06-11T12:23:36.065Z,12.00
2018-06-11T12:26:03.161Z,11.20
2018-06-11T12:28:30.281Z,11.80
2018-06-11T12:30:57.561Z,12.93
2018-06-11T12:33:24.673Z,10.90
2018-06-11T12:35:51.821Z,14.07
2018-06-11T12:38:18.926Z,12.30
2018-06-11T12:40:46.105Z,11.60
2018-06-11T12:43:13.242Z,11.83
2018-06-11T12:45:40.355Z,9.37
2018-06-11T12:48:09.542Z,10.13
2018-06-11T12:50:36.649Z,10.87
2018-06-11T12:53:03.775Z,8.97
2018-06-11T12:55:30.892Z,9.00
2018-06-11T12:57:58.081Z,8.40
2018-06-11T13:00:25.209Z,8.17
2018-06-11T13:02:52.344Z,7.80
2018-06-11T13:05:19.466Z,8.53
2018-06-11T13:07:46.561Z,9.40
2018-06-11T13:10:13.685Z,7.63
2018-06-11T13:12:40.881Z,8.03
2018-06-11T13:15:08.109Z,7.50
2018-06-11T13:17:35.277Z,7.40
2018-06-11T13:20:02.421Z,7.27
2018-06-11T13:22:29.576Z,7.57
2018-06-11T13:24:56.936Z,7.80
2018-06-11T13:27:24.037Z,6.73
2018-06-11T13:29:51.129Z,7.10
2018-06-11T13:32:18.241Z,8.80
2018-06-11T13:34:45.361Z,6.83
2018-06-11T13:37:12.509Z,7.40
2018-06-11T13:39:39.961Z,8.50
2018-06-11T13:42:07.336Z,8.17
2018-06-11T13:44:34.465Z,7.70
2018-06-11T13:47:01.612Z,8.03
2018-06-11T13:49:28.688Z,8.57
2018-06-11T13:51:55.817Z,8.70
2018-06-11T13:54:22.944Z,7.70
2018-06-11T13:56:50.113Z,6.77
2018-06-11T13:59:17.257Z,7.73
2018-06-11T14:01:44.458Z,7.60
2018-06-11T14:04:11.609Z,6.97
2018-06-11T14:06:38.711Z,7.93
2018-06-11T14:09:06.769Z,6.90
2018-06-11T14:11:33.919Z,6.83
2018-06-11T14:14:01.349Z,7.13
2018-06-11T14:16:28.524Z,7.07
2018-06-11T14:18:55.622Z,7.17
2018-06-11T14:21:22.778Z,7.67
2018-06-11T14:23:49.872Z,7.37
2018-06-11T14:26:17.018Z,7.77
2018-06-11T14:28:44.144Z,7.03
2018-06-11T14:31:11.229Z,6.90
2018-06-11T14:33:38.391Z,6.53
2018-06-11T14:36:05.566Z,6.80
2018-06-11T14:38:32.714Z,7.47
2018-06-11T14:40:59.817Z,7.13
2018-06-11T14:43:26.932Z,10.20
2018-06-11T14:45:54.025Z,7.20
2018-06-11T14:48:21.323Z,7.77
2018-06-11T14:50:48.408Z,6.47
2018-06-11T14:53:15.549Z,6.73
2018-06-11T14:55:42.684Z,7.57
2018-06-11T15:00:34.380Z,7.07
2018-06-11T15:03:01.518Z,6.30
2018-06-11T15:05:28.672Z,7.37
2018-06-11T15:07:55.777Z,7.30
2018-06-11T15:10:22.897Z,7.27
2018-06-11T15:12:49.989Z,7.73
2018-06-11T15:15:17.087Z,8.27
2018-06-11T15:17:44.184Z,8.03
2018-06-11T15:20:11.358Z,7.63
2018-06-11T15:22:38.458Z,8.67
2018-06-11T15:25:05.591Z,7.70
2018-06-11T15:27:32.698Z,7.77
2018-06-11T15:29:59.826Z,8.40
2018-06-11T15:32:26.930Z,8.43
2018-06-11T15:34:54.034Z,8.13
2018-06-11T15:37:21.141Z,8.63
2018-06-11T15:39:48.249Z,8.20
2018-06-11T15:42:15.361Z,7.30
2018-06-11T15:44:42.512Z,7.77
2018-06-11T15:47:09.657Z,8.30
2018-06-11T15:49:37.092Z,7.50
2018-06-11T15:52:04.199Z,8.00
2018-06-11T15:54:31.436Z,7.73
2018-06-11T15:56:58.558Z,8.00
2018-06-11T15:59:25.676Z,7.53
2018-06-11T16:01:52.914Z,8.07
2018-06-11T16:04:20.017Z,8.60
2018-06-11T16:06:47.125Z,8.37
2018-06-11T16:09:14.262Z,10.17
2018-06-11T16:11:41.430Z,13.40
2018-06-11T16:14:08.577Z,8.40
2018-06-11T16:16:35.684Z,8.50
2018-06-11T16:19:02.804Z,8.50
2018-06-11T16:21:29.941Z,8.17
2018-06-11T16:23:57.121Z,7.50
2018-06-11T16:26:24.231Z,8.23
2018-06-11T16:28:51.376Z,9.47
2018-06-11T16:31:18.564Z,9.00
2018-06-11T16:33:45.774Z,9.73
2018-06-11T16:36:12.924Z,9.90
2018-06-11T16:38:40.125Z,9.00
2018-06-11T16:41:07.502Z,10.90
2018-06-11T16:43:34.590Z,9.03
2018-06-11T16:46:01.703Z,8.63
2018-06-11T16:48:28.831Z,8.43
2018-06-11T16:50:55.972Z,9.37
2018-06-11T16:53:23.344Z,8.40
2018-06-11T16:55:50.448Z,7.80
2018-06-11T16:58:17.570Z,8.47
2018-06-11T17:00:44.816Z,8.53
2018-06-11T17:03:11.933Z,7.37
2018-06-11T17:05:39.073Z,8.70
2018-06-11T17:08:06.202Z,7.43
2018-06-11T17:10:33.300Z,7.67
2018-06-11T17:13:00.546Z,9.47
2018-06-11T17:15:27.698Z,8.20
2018-06-11T17:17:54.828Z,10.80
2018-06-11T17:20:22.021Z,7.40
2018-06-11T17:22:49.143Z,6.67
2018-06-11T17:25:17.097Z,10.70
2018-06-11T17:27:44.190Z,6.70
2018-06-11T17:30:11.296Z,6.67
2018-06-11T17:32:38.397Z,9.30
2018-06-11T17:35:05.513Z,9.73
2018-06-11T17:37:32.661Z,6.67
2018-06-11T17:40:00.027Z,8.90
2018-06-11T17:42:27.165Z,6.37
2018-06-11T17:44:54.313Z,6.30
2018-06-11T17:47:21.491Z,6.40
2018-06-11T17:49:48.645Z,6.17
2018-06-11T17:52:15.767Z,6.00
2018-06-11T17:54:43.027Z,7.67
2018-06-11T17:57:10.298Z,6.37
2018-06-11T17:59:37.656Z,6.23
2018-06-11T18:02:04.858Z,6.43
2018-06-11T18:04:31.965Z,6.73
2018-06-11T18:06:59.108Z,5.40
2018-06-11T18:09:26.361Z,7.03
2018-06-11T18:11:53.502Z,6.17
2018-06-11T18:14:20.622Z,6.47
2018-06-11T18:16:47.762Z,6.30
2018-06-11T18:19:14.857Z,5.90
2018-06-11T18:21:42.002Z,7.53
2018-06-11T18:24:09.125Z,6.80
2018-06-11T18:26:36.271Z,6.60
2018-06-11T18:29:03.387Z,6.90
2018-06-11T18:31:30.877Z,7.43
2018-06-11T18:33:58.040Z,8.30
2018-06-11T18:36:25.162Z,7.70
2018-06-11T18:38:52.333Z,8.67
2018-06-11T18:41:20.129Z,6.17
2018-06-11T18:43:47.258Z,8.83
2018-06-11T18:46:14.445Z,5.80
2018-06-11T18:48:41.545Z,6.90
2018-06-11T18:51:08.905Z,6.50
2018-06-11T18:53:36.126Z,8.63
2018-06-11T18:56:06.948Z,7.60
2018-06-11T18:58:34.168Z,9.60
2018-06-11T19:01:01.257Z,7.13
2018-06-11T19:03:28.732Z,9.57
2018-06-11T19:05:55.869Z,9.30
2018-06-11T19:08:22.988Z,6.77
2018-06-11T19:10:50.097Z,7.70
2018-06-11T19:13:17.225Z,9.13
2018-06-11T19:15:44.418Z,9.07
2018-06-11T19:18:11.544Z,8.77
2018-06-11T19:20:38.648Z,10.37
2018-06-11T19:23:05.782Z,9.57
2018-06-11T19:25:33.118Z,10.37
2018-06-11T19:28:03.042Z,8.40
2018-06-11T19:30:31.857Z,12.80
2018-06-11T19:32:59.093Z,9.93
2018-06-11T19:35:26.251Z,10.13
2018-06-11T19:37:53.316Z,8.73
2018-06-11T19:40:20.485Z,9.80
2018-06-11T19:42:48.637Z,8.30
2018-06-11T19:45:15.857Z,9.27
2018-06-11T19:47:43.157Z,8.27
2018-06-11T19:50:10.333Z,9.27
2018-06-11T19:52:37.425Z,8.67
2018-06-11T19:55:04.723Z,8.97
2018-06-11T19:57:32.053Z,11.10
2018-06-11T19:59:59.366Z,9.30
2018-06-11T20:02:26.521Z,9.10
2018-06-11T20:04:53.645Z,9.50
2018-06-11T20:07:20.872Z,14.63
2018-06-11T20:09:48.007Z,9.50
2018-06-11T20:12:15.209Z,10.60
2018-06-11T20:14:42.354Z,10.10
2018-06-11T20:17:09.469Z,9.33
2018-06-11T20:19:36.829Z,8.83
2018-06-11T20:22:04.059Z,9.83
2018-06-11T20:24:31.513Z,10.20
2018-06-11T20:26:59.442Z,10.93
2018-06-11T20:29:26.717Z,8.90
2018-06-11T20:31:55.213Z,9.83
2018-06-11T20:34:22.538Z,11.17
2018-06-11T20:36:49.822Z,9.33
2018-06-11T20:39:16.957Z,9.30
2018-06-11T20:41:45.237Z,9.87
2018-06-11T20:44:13.447Z,10.00
2018-06-11T20:46:40.643Z,10.40
2018-06-11T20:49:07.724Z,11.90
2018-06-11T20:51:34.860Z,9.60
2018-06-11T20:54:02.508Z,8.77
2018-06-11T20:56:29.664Z,9.70
2018-06-11T20:58:56.812Z,9.50
2018-06-11T21:01:24.682Z,9.87
2018-06-11T21:03:51.790Z,13.10
2018-06-11T21:06:19.082Z,9.43
2018-06-11T21:08:46.213Z,10.97
2018-06-11T21:11:13.661Z,9.17
2018-06-11T21:13:40.781Z,10.20
2018-06-11T21:16:07.982Z,9.93
2018-06-11T21:18:35.137Z,9.90
2018-06-11T21:21:02.322Z,9.57
2018-06-11T21:23:29.444Z,8.83
2018-06-11T21:25:56.558Z,11.10
2018-06-11T21:28:23.656Z,13.53
2018-06-11T21:30:50.765Z,9.87
2018-06-11T21:33:17.903Z,9.77
2018-06-11T21:35:45.103Z,9.90
2018-06-11T21:38:12.201Z,9.13
2018-06-11T21:40:39.421Z,9.30
2018-06-11T21:43:06.548Z,10.30
2018-06-11T21:45:33.754Z,13.53
2018-06-11T21:48:00.845Z,10.03
2018-06-11T21:50:27.974Z,11.60
2018-06-11T21:52:55.085Z,13.53
2018-06-11T21:55:22.192Z,10.37
2018-06-11T21:57:49.289Z,10.37
2018-06-11T22:00:16.412Z,10.07
2018-06-11T22:02:43.566Z,12.33
2018-06-11T22:05:10.714Z,10.47
2018-06-11T22:07:37.885Z,12.63
2018-06-11T22:10:05.082Z,14.10
2018-06-11T22:12:32.369Z,11.93
2018-06-11T22:14:59.481Z,13.50
2018-06-11T22:17:26.724Z,10.43
2018-06-11T22:19:53.836Z,12.87
2018-06-11T22:22:20.942Z,12.83
2018-06-11T22:24:48.101Z,10.83
2018-06-11T22:27:15.207Z,11.13
2018-06-11T22:29:42.382Z,11.90
2018-06-11T22:32:09.569Z,13.10
2018-06-11T22:34:36.672Z,10.70
2018-06-11T22:37:03.822Z,10.00
2018-06-11T22:39:30.933Z,15.50
2018-06-11T22:41:58.079Z,11.20
2018-06-11T22:44:25.222Z,11.83
2018-06-11T22:46:52.728Z,11.53
2018-06-11T22:49:19.837Z,12.43
2018-06-11T22:51:46.935Z,10.30
2018-06-11T22:54:14.072Z,10.53
2018-06-11T22:56:41.208Z,10.57
2018-06-11T22:59:08.313Z,11.67
2018-06-11T23:01:35.417Z,13.30
2018-06-11T23:04:02.581Z,10.30
2018-06-11T23:06:29.685Z,10.00
2018-06-11T23:08:56.855Z,10.50
2018-06-11T23:11:23.957Z,10.27
2018-06-11T23:13:51.061Z,12.37
2018-06-11T23:16:18.313Z,16.67
2018-06-11T23:18:45.435Z,9.37
2018-06-11T23:21:12.537Z,12.73
2018-06-11T23:23:39.641Z,11.33
2018-06-11T23:26:06.729Z,9.97
2018-06-11T23:28:33.844Z,12.13
2018-06-11T23:31:00.962Z,10.63
2018-06-11T23:33:28.077Z,10.77
2018-06-11T23:35:55.193Z,11.80
2018-06-11T23:38:22.300Z,14.23
2018-06-11T23:40:49.465Z,10.77
2018-06-11T23:43:16.573Z,9.73
2018-06-11T23:45:43.676Z,11.10
2018-06-11T23:48:10.781Z,9.83
2018-06-11T23:50:37.881Z,10.27
2018-06-11T23:53:04.984Z,11.20
2018-06-11T23:55:32.116Z,18.33
2018-06-11T23:57:59.713Z,13.70
